sensor_id;sensor_type;location;lat;lon;timestamp;P1;durP1;ratioP1;P2;durP2;ratioP2
36551;SDS011;22559;54.176;12.102;2023-02-05T00:02:07;3.13;;;1.90;;
36551;SDS011;22559;54.176;12.102;2023-02-05T00:04:34;2.87;;;2.10;;
36551;SDS011;22559;54.176;12.102;2023-02-05T00:07:00;2.60;;;2.30;;
36551;SDS011;22559;54.176;12.102;2023-02-05T00:09:26;4.07;;;2.50;;
36551;SDS011;22559;54.176;12.102;2023-02-05T00:11:55;7.57;;;2.70;;
36551;SDS011;22559;54.176;12.102;2023-02-05T00:14:21;6.63;;;3.17;;
36551;SDS011;22559;54.176;12.102;2023-02-05T00:16:47;9.17;;;3.03;;
36551;SDS011;22559;54.176;12.102;2023-02-05T00:19:13;11.60;;;2.97;;
36551;SDS011;22559;54.176;12.102;2023-02-05T00:21:39;4.93;;;2.70;;
36551;SDS011;22559;54.176;12.102;2023-02-05T00:24:04;4.47;;;2.67;;
36551;SDS011;22559;54.176;12.102;2023-02-05T00:26:30;6.77;;;2.90;;
36551;SDS011;22559;54.176;12.102;2023-02-05T00:28:56;3.83;;;3.13;;
36551;SDS011;22559;54.176;12.102;2023-02-05T00:31:22;7.10;;;2.67;;
36551;SDS011;22559;54.176;12.102;2023-02-05T00:33:48;6.50;;;3.20;;
36551;SDS011;22559;54.176;12.102;2023-02-05T00:36:15;7.57;;;3.27;;
36551;SDS011;22559;54.176;12.102;2023-02-05T00:38:43;8.03;;;3.00;;
36551;SDS011;22559;54.176;12.102;2023-02-05T00:41:10;5.60;;;3.30;;
36551;SDS011;22559;54.176;12.102;2023-02-05T00:43:37;8.23;;;3.23;;
36551;SDS011;22559;54.176;12.102;2023-02-05T00:46:03;2.37;;;2.17;;
36551;SDS011;22559;54.176;12.102;2023-02-05T00:48:28;4.77;;;2.00;;
36551;SDS011;22559;54.176;12.102;2023-02-05T00:50:54;2.40;;;2.07;;
36551;SDS011;22559;54.176;12.102;2023-02-05T00:53:20;2.43;;;2.23;;
36551;SDS011;22559;54.176;12.102;2023-02-05T00:55:47;2.80;;;2.60;;
36551;SDS011;22559;54.176;12.102;2023-02-05T00:58:13;5.70;;;2.87;;
36551;SDS011;22559;54.176;12.102;2023-02-05T01:00:38;4.93;;;2.93;;
36551;SDS011;22559;54.176;12.102;2023-02-05T01:03:04;3.40;;;2.20;;
36551;SDS011;22559;54.176;12.102;2023-02-05T01:05:31;2.00;;;1.90;;
36551;SDS011;22559;54.176;12.102;2023-02-05T01:07:58;2.53;;;2.33;;
36551;SDS011;22559;54.176;12.102;2023-02-05T01:10:24;2.53;;;2.43;;
36551;SDS011;22559;54.176;12.102;2023-02-05T01:12:50;2.40;;;2.23;;
36551;SDS011;22559;54.176;12.102;2023-02-05T01:15:15;2.47;;;2.27;;
36551;SDS011;22559;54.176;12.102;2023-02-05T01:17:41;2.40;;;2.20;;
36551;SDS011;22559;54.176;12.102;2023-02-05T01:20:07;2.63;;;2.43;;
36551;SDS011;22559;54.176;12.102;2023-02-05T01:22:34;2.30;;;2.20;;
36551;SDS011;22559;54.176;12.102;2023-02-05T01:25:00;2.30;;;2.10;;
36551;SDS011;22559;54.176;12.102;2023-02-05T01:27:26;2.40;;;2.20;;
36551;SDS011;22559;54.176;12.102;2023-02-05T01:29:51;2.20;;;2.10;;
36551;SDS011;22559;54.176;12.102;2023-02-05T01:32:17;2.13;;;2.03;;
36551;SDS011;22559;54.176;12.102;2023-02-05T01:34:43;2.07;;;1.97;;
36551;SDS011;22559;54.176;12.102;2023-02-05T01:37:09;2.07;;;1.97;;
36551;SDS011;22559;54.176;12.102;2023-02-05T01:39:35;2.50;;;2.40;;
36551;SDS011;22559;54.176;12.102;2023-02-05T01:42:03;2.27;;;2.07;;
36551;SDS011;22559;54.176;12.102;2023-02-05T01:44:39;2.37;;;2.23;;
36551;SDS011;22559;54.176;12.102;2023-02-05T01:47:05;4.30;;;2.20;;
36551;SDS011;22559;54.176;12.102;2023-02-05T01:49:31;2.43;;;2.00;;
36551;SDS011;22559;54.176;12.102;2023-02-05T01:52:04;3.80;;;2.30;;
36551;SDS011;22559;54.176;12.102;2023-02-05T01:54:34;2.30;;;2.10;;
36551;SDS011;22559;54.176;12.102;2023-02-05T01:57:04;2.27;;;2.17;;
36551;SDS011;22559;54.176;12.102;2023-02-05T01:59:34;2.20;;;2.10;;
36551;SDS011;22559;54.176;12.102;2023-02-05T02:02:02;2.07;;;1.97;;
36551;SDS011;22559;54.176;12.102;2023-02-05T02:07:03;3.33;;;1.97;;
36551;SDS011;22559;54.176;12.102;2023-02-05T02:09:30;2.60;;;2.10;;
36551;SDS011;22559;54.176;12.102;2023-02-05T02:11:56;2.30;;;2.10;;
36551;SDS011;22559;54.176;12.102;2023-02-05T02:14:23;2.77;;;1.90;;
36551;SDS011;22559;54.176;12.102;2023-02-05T02:16:49;1.80;;;1.70;;
36551;SDS011;22559;54.176;12.102;2023-02-05T02:19:17;2.20;;;2.00;;
36551;SDS011;22559;54.176;12.102;2023-02-05T02:35:31;2.83;;;2.20;;
36551;SDS011;22559;54.176;12.102;2023-02-05T02:38:21;4.37;;;1.90;;
36551;SDS011;22559;54.176;12.102;2023-02-05T02:40:54;2.20;;;2.00;;
36551;SDS011;22559;54.176;12.102;2023-02-05T02:44:05;2.10;;;1.90;;
36551;SDS011;22559;54.176;12.102;2023-02-05T02:46:34;1.90;;;1.80;;
36551;SDS011;22559;54.176;12.102;2023-02-05T02:49:06;2.00;;;1.90;;
36551;SDS011;22559;54.176;12.102;2023-02-05T02:51:36;2.10;;;1.90;;
36551;SDS011;22559;54.176;12.102;2023-02-05T02:54:05;2.57;;;2.37;;
36551;SDS011;22559;54.176;12.102;2023-02-05T02:56:33;1.90;;;1.80;;
36551;SDS011;22559;54.176;12.102;2023-02-05T02:59:04;2.00;;;1.83;;
36551;SDS011;22559;54.176;12.102;2023-02-05T03:01:35;2.27;;;2.17;;
36551;SDS011;22559;54.176;12.102;2023-02-05T03:04:14;3.87;;;2.23;;
36551;SDS011;22559;54.176;12.102;2023-02-05T03:06:53;4.60;;;2.63;;
36551;SDS011;22559;54.176;12.102;2023-02-05T03:09:30;7.70;;;3.10;;
36551;SDS011;22559;54.176;12.102;2023-02-05T03:12:02;2.63;;;2.10;;
36551;SDS011;22559;54.176;12.102;2023-02-05T03:14:28;4.33;;;2.20;;
36551;SDS011;22559;54.176;12.102;2023-02-05T03:16:55;3.37;;;1.97;;
36551;SDS011;22559;54.176;12.102;2023-02-05T03:19:20;2.40;;;2.30;;
36551;SDS011;22559;54.176;12.102;2023-02-05T03:21:48;2.37;;;2.10;;
36551;SDS011;22559;54.176;12.102;2023-02-05T03:24:18;2.30;;;2.00;;
36551;SDS011;22559;54.176;12.102;2023-02-05T03:26:44;2.23;;;2.13;;
36551;SDS011;22559;54.176;12.102;2023-02-05T03:29:12;1.90;;;1.80;;
36551;SDS011;22559;54.176;12.102;2023-02-05T03:42:31;2.53;;;2.20;;
36551;SDS011;22559;54.176;12.102;2023-02-05T03:50:54;2.00;;;1.90;;
36551;SDS011;22559;54.176;12.102;2023-02-05T03:53:36;2.07;;;1.97;;
36551;SDS011;22559;54.176;12.102;2023-02-05T03:56:07;2.20;;;2.10;;
36551;SDS011;22559;54.176;12.102;2023-02-05T03:58:42;2.43;;;2.27;;
36551;SDS011;22559;54.176;12.102;2023-02-05T04:01:12;2.10;;;2.00;;
36551;SDS011;22559;54.176;12.102;2023-02-05T04:03:37;3.27;;;2.20;;
36551;SDS011;22559;54.176;12.102;2023-02-05T04:06:04;2.20;;;2.10;;
36551;SDS011;22559;54.176;12.102;2023-02-05T04:08:31;2.67;;;2.30;;
36551;SDS011;22559;54.176;12.102;2023-02-05T04:10:57;2.30;;;2.20;;
36551;SDS011;22559;54.176;12.102;2023-02-05T04:13:22;2.30;;;2.20;;
36551;SDS011;22559;54.176;12.102;2023-02-05T04:15:49;2.40;;;2.20;;
36551;SDS011;22559;54.176;12.102;2023-02-05T04:18:15;4.00;;;2.17;;
36551;SDS011;22559;54.176;12.102;2023-02-05T04:20:41;3.07;;;2.07;;
36551;SDS011;22559;54.176;12.102;2023-02-05T04:23:07;3.37;;;2.27;;
36551;SDS011;22559;54.176;12.102;2023-02-05T04:25:35;3.13;;;2.33;;
36551;SDS011;22559;54.176;12.102;2023-02-05T04:28:01;2.53;;;2.40;;
36551;SDS011;22559;54.176;12.102;2023-02-05T04:30:26;3.63;;;2.20;;
36551;SDS011;22559;54.176;12.102;2023-02-05T04:32:52;3.70;;;2.43;;
36551;SDS011;22559;54.176;12.102;2023-02-05T04:35:18;2.43;;;2.23;;
36551;SDS011;22559;54.176;12.102;2023-02-05T04:37:43;4.80;;;2.23;;
36551;SDS011;22559;54.176;12.102;2023-02-05T04:40:09;2.20;;;2.00;;
36551;SDS011;22559;54.176;12.102;2023-02-05T04:42:35;4.07;;;2.40;;
36551;SDS011;22559;54.176;12.102;2023-02-05T04:45:00;4.10;;;2.43;;
36551;SDS011;22559;54.176;12.102;2023-02-05T04:47:26;6.87;;;2.43;;
36551;SDS011;22559;54.176;12.102;2023-02-05T04:49:53;2.87;;;2.53;;
36551;SDS011;22559;54.176;12.102;2023-02-05T04:52:19;2.73;;;2.50;;
36551;SDS011;22559;54.176;12.102;2023-02-05T04:54:45;2.80;;;2.50;;
36551;SDS011;22559;54.176;12.102;2023-02-05T04:57:10;6.07;;;2.73;;
36551;SDS011;22559;54.176;12.102;2023-02-05T04:59:36;14.83;;;4.60;;
36551;SDS011;22559;54.176;12.102;2023-02-05T05:02:01;8.97;;;3.63;;
36551;SDS011;22559;54.176;12.102;2023-02-05T05:04:27;12.00;;;3.47;;
36551;SDS011;22559;54.176;12.102;2023-02-05T05:06:53;12.70;;;3.43;;
36551;SDS011;22559;54.176;12.102;2023-02-05T05:09:18;6.90;;;3.23;;
36551;SDS011;22559;54.176;12.102;2023-02-05T05:11:48;11.17;;;3.23;;
36551;SDS011;22559;54.176;12.102;2023-02-05T05:14:14;8.90;;;2.90;;
36551;SDS011;22559;54.176;12.102;2023-02-05T05:16:40;5.60;;;3.00;;
36551;SDS011;22559;54.176;12.102;2023-02-05T05:19:06;8.90;;;3.10;;
36551;SDS011;22559;54.176;12.102;2023-02-05T05:21:31;6.10;;;2.80;;
36551;SDS011;22559;54.176;12.102;2023-02-05T05:23:57;7.00;;;2.80;;
36551;SDS011;22559;54.176;12.102;2023-02-05T05:26:23;4.37;;;2.53;;
36551;SDS011;22559;54.176;12.102;2023-02-05T05:28:51;6.63;;;2.33;;
36551;SDS011;22559;54.176;12.102;2023-02-05T05:31:20;8.67;;;3.10;;
36551;SDS011;22559;54.176;12.102;2023-02-05T05:33:48;2.77;;;2.57;;
36551;SDS011;22559;54.176;12.102;2023-02-05T05:36:14;5.27;;;2.30;;
36551;SDS011;22559;54.176;12.102;2023-02-05T05:38:40;2.60;;;2.40;;
36551;SDS011;22559;54.176;12.102;2023-02-05T05:41:06;2.50;;;2.30;;
36551;SDS011;22559;54.176;12.102;2023-02-05T05:43:53;2.10;;;2.00;;
36551;SDS011;22559;54.176;12.102;2023-02-05T05:46:20;3.90;;;3.60;;
36551;SDS011;22559;54.176;12.102;2023-02-05T05:48:51;3.57;;;3.00;;
36551;SDS011;22559;54.176;12.102;2023-02-05T05:51:19;3.27;;;2.97;;
36551;SDS011;22559;54.176;12.102;2023-02-05T05:53:45;3.43;;;3.23;;
36551;SDS011;22559;54.176;12.102;2023-02-05T05:56:12;3.07;;;2.43;;
36551;SDS011;22559;54.176;12.102;2023-02-05T05:58:38;2.70;;;2.50;;
36551;SDS011;22559;54.176;12.102;2023-02-05T06:01:05;1.93;;;1.83;;
36551;SDS011;22559;54.176;12.102;2023-02-05T06:03:31;4.23;;;2.40;;
36551;SDS011;22559;54.176;12.102;2023-02-05T06:05:59;1.93;;;1.83;;
36551;SDS011;22559;54.176;12.102;2023-02-05T06:08:26;2.43;;;2.33;;
36551;SDS011;22559;54.176;12.102;2023-02-05T06:10:51;3.37;;;2.30;;
36551;SDS011;22559;54.176;12.102;2023-02-05T06:13:17;2.17;;;2.07;;
36551;SDS011;22559;54.176;12.102;2023-02-05T06:15:43;3.50;;;2.27;;
36551;SDS011;22559;54.176;12.102;2023-02-05T06:18:08;2.20;;;2.10;;
36551;SDS011;22559;54.176;12.102;2023-02-05T06:20:34;2.07;;;1.97;;
36551;SDS011;22559;54.176;12.102;2023-02-05T06:22:59;2.23;;;2.13;;
36551;SDS011;22559;54.176;12.102;2023-02-05T06:25:25;3.00;;;2.10;;
36551;SDS011;22559;54.176;12.102;2023-02-05T06:27:51;2.30;;;2.10;;
36551;SDS011;22559;54.176;12.102;2023-02-05T06:30:16;2.10;;;2.00;;
36551;SDS011;22559;54.176;12.102;2023-02-05T06:32:42;1.93;;;1.83;;
36551;SDS011;22559;54.176;12.102;2023-02-05T06:35:08;1.90;;;1.80;;
36551;SDS011;22559;54.176;12.102;2023-02-05T06:37:33;2.77;;;2.40;;
36551;SDS011;22559;54.176;12.102;2023-02-05T06:39:59;2.13;;;2.03;;
36551;SDS011;22559;54.176;12.102;2023-02-05T06:42:25;4.10;;;2.40;;
36551;SDS011;22559;54.176;12.102;2023-02-05T06:44:50;2.27;;;2.17;;
36551;SDS011;22559;54.176;12.102;2023-02-05T06:47:16;3.00;;;2.50;;
36551;SDS011;22559;54.176;12.102;2023-02-05T06:49:42;2.30;;;2.10;;
36551;SDS011;22559;54.176;12.102;2023-02-05T06:52:07;2.20;;;2.10;;
36551;SDS011;22559;54.176;12.102;2023-02-05T06:54:33;2.93;;;1.93;;
36551;SDS011;22559;54.176;12.102;2023-02-05T06:56:58;1.90;;;1.80;;
36551;SDS011;22559;54.176;12.102;2023-02-05T06:59:24;2.53;;;2.33;;
36551;SDS011;22559;54.176;12.102;2023-02-05T07:01:50;1.60;;;1.50;;
36551;SDS011;22559;54.176;12.102;2023-02-05T07:04:16;2.27;;;2.10;;
36551;SDS011;22559;54.176;12.102;2023-02-05T07:06:42;2.00;;;1.90;;
36551;SDS011;22559;54.176;12.102;2023-02-05T07:09:07;2.10;;;2.00;;
36551;SDS011;22559;54.176;12.102;2023-02-05T07:11:33;2.40;;;2.20;;
36551;SDS011;22559;54.176;12.102;2023-02-05T07:13:59;2.40;;;2.20;;
36551;SDS011;22559;54.176;12.102;2023-02-05T07:16:26;2.03;;;1.93;;
36551;SDS011;22559;54.176;12.102;2023-02-05T07:18:53;2.27;;;1.97;;
36551;SDS011;22559;54.176;12.102;2023-02-05T07:21:18;2.37;;;2.17;;
36551;SDS011;22559;54.176;12.102;2023-02-05T07:23:44;2.60;;;1.73;;
36551;SDS011;22559;54.176;12.102;2023-02-05T07:26:11;2.40;;;2.20;;
36551;SDS011;22559;54.176;12.102;2023-02-05T07:28:38;2.73;;;2.17;;
36551;SDS011;22559;54.176;12.102;2023-02-05T07:31:05;4.33;;;2.10;;
36551;SDS011;22559;54.176;12.102;2023-02-05T07:33:34;3.10;;;2.00;;
36551;SDS011;22559;54.176;12.102;2023-02-05T07:36:03;3.23;;;2.20;;
36551;SDS011;22559;54.176;12.102;2023-02-05T07:38:30;6.30;;;2.10;;
36551;SDS011;22559;54.176;12.102;2023-02-05T07:40:57;8.10;;;2.63;;
36551;SDS011;22559;54.176;12.102;2023-02-05T07:43:22;8.20;;;3.27;;
36551;SDS011;22559;54.176;12.102;2023-02-05T07:45:58;2.77;;;2.50;;
36551;SDS011;22559;54.176;12.102;2023-02-05T07:48:26;10.37;;;3.20;;
36551;SDS011;22559;54.176;12.102;2023-02-05T07:50:51;4.00;;;2.53;;
36551;SDS011;22559;54.176;12.102;2023-02-05T07:53:17;2.40;;;2.20;;
36551;SDS011;22559;54.176;12.102;2023-02-05T07:55:43;3.00;;;1.87;;
36551;SDS011;22559;54.176;12.102;2023-02-05T07:58:09;2.00;;;1.90;;
36551;SDS011;22559;54.176;12.102;2023-02-05T08:00:35;1.97;;;1.87;;
36551;SDS011;22559;54.176;12.102;2023-02-05T08:03:01;2.27;;;1.90;;
36551;SDS011;22559;54.176;12.102;2023-02-05T08:05:26;2.00;;;1.83;;
36551;SDS011;22559;54.176;12.102;2023-02-05T08:07:52;4.80;;;2.20;;
36551;SDS011;22559;54.176;12.102;2023-02-05T08:10:18;2.63;;;2.50;;
36551;SDS011;22559;54.176;12.102;2023-02-05T08:12:44;2.00;;;1.90;;
36551;SDS011;22559;54.176;12.102;2023-02-05T08:15:09;2.10;;;1.90;;
36551;SDS011;22559;54.176;12.102;2023-02-05T08:17:35;3.03;;;1.77;;
36551;SDS011;22559;54.176;12.102;2023-02-05T08:20:02;2.40;;;2.20;;
36551;SDS011;22559;54.176;12.102;2023-02-05T08:22:35;1.70;;;1.60;;
36551;SDS011;22559;54.176;12.102;2023-02-05T08:25:06;1.87;;;1.80;;
36551;SDS011;22559;54.176;12.102;2023-02-05T08:27:37;1.57;;;1.57;;
36551;SDS011;22559;54.176;12.102;2023-02-05T08:30:04;1.80;;;1.80;;
36551;SDS011;22559;54.176;12.102;2023-02-05T08:32:32;1.90;;;1.80;;
36551;SDS011;22559;54.176;12.102;2023-02-05T08:34:57;6.23;;;2.20;;
36551;SDS011;22559;54.176;12.102;2023-02-05T08:37:23;2.20;;;2.10;;
36551;SDS011;22559;54.176;12.102;2023-02-05T08:39:50;2.30;;;1.83;;
36551;SDS011;22559;54.176;12.102;2023-02-05T08:42:16;6.53;;;2.77;;
36551;SDS011;22559;54.176;12.102;2023-02-05T08:44:42;4.30;;;2.00;;
36551;SDS011;22559;54.176;12.102;2023-02-05T08:47:08;6.07;;;2.53;;
36551;SDS011;22559;54.176;12.102;2023-02-05T08:49:34;3.00;;;2.13;;
36551;SDS011;22559;54.176;12.102;2023-02-05T08:52:00;2.00;;;1.90;;
36551;SDS011;22559;54.176;12.102;2023-02-05T08:54:26;2.37;;;2.17;;
36551;SDS011;22559;54.176;12.102;2023-02-05T08:56:52;2.23;;;2.07;;
36551;SDS011;22559;54.176;12.102;2023-02-05T08:59:19;3.37;;;2.10;;
36551;SDS011;22559;54.176;12.102;2023-02-05T09:01:44;1.50;;;1.50;;
36551;SDS011;22559;54.176;12.102;2023-02-05T09:04:12;2.90;;;2.10;;
36551;SDS011;22559;54.176;12.102;2023-02-05T09:06:39;2.63;;;1.70;;
36551;SDS011;22559;54.176;12.102;2023-02-05T09:09:05;2.10;;;2.00;;
36551;SDS011;22559;54.176;12.102;2023-02-05T09:11:31;4.17;;;2.27;;
36551;SDS011;22559;54.176;12.102;2023-02-05T09:13:56;4.23;;;2.13;;
36551;SDS011;22559;54.176;12.102;2023-02-05T09:16:22;8.27;;;2.87;;
36551;SDS011;22559;54.176;12.102;2023-02-05T09:18:49;4.33;;;1.93;;
36551;SDS011;22559;54.176;12.102;2023-02-05T09:21:14;4.43;;;2.10;;
36551;SDS011;22559;54.176;12.102;2023-02-05T09:23:40;3.37;;;2.07;;
36551;SDS011;22559;54.176;12.102;2023-02-05T09:26:06;2.60;;;2.20;;
36551;SDS011;22559;54.176;12.102;2023-02-05T09:28:33;5.77;;;2.57;;
36551;SDS011;22559;54.176;12.102;2023-02-05T09:31:04;2.03;;;1.93;;
36551;SDS011;22559;54.176;12.102;2023-02-05T09:33:34;2.23;;;1.83;;
36551;SDS011;22559;54.176;12.102;2023-02-05T09:36:11;1.60;;;1.60;;
36551;SDS011;22559;54.176;12.102;2023-02-05T09:38:39;1.77;;;1.77;;
36551;SDS011;22559;54.176;12.102;2023-02-05T09:49:18;2.27;;;2.07;;
36551;SDS011;22559;54.176;12.102;2023-02-05T09:52:11;1.77;;;1.67;;
36551;SDS011;22559;54.176;12.102;2023-02-05T09:54:50;1.67;;;1.57;;
36551;SDS011;22559;54.176;12.102;2023-02-05T09:57:26;2.00;;;1.90;;
36551;SDS011;22559;54.176;12.102;2023-02-05T09:59:58;1.90;;;1.70;;
36551;SDS011;22559;54.176;12.102;2023-02-05T10:04:52;1.87;;;1.80;;
36551;SDS011;22559;54.176;12.102;2023-02-05T10:09:58;2.13;;;1.90;;
36551;SDS011;22559;54.176;12.102;2023-02-05T10:18:08;2.00;;;1.90;;
36551;SDS011;22559;54.176;12.102;2023-02-05T10:20:53;1.70;;;1.60;;
36551;SDS011;22559;54.176;12.102;2023-02-05T10:26:27;2.63;;;1.80;;
36551;SDS011;22559;54.176;12.102;2023-02-05T10:29:10;1.83;;;1.73;;
36551;SDS011;22559;54.176;12.102;2023-02-05T10:32:19;1.60;;;1.60;;
36551;SDS011;22559;54.176;12.102;2023-02-05T10:34:57;2.07;;;1.50;;
36551;SDS011;22559;54.176;12.102;2023-02-05T10:37:37;1.80;;;1.70;;
36551;SDS011;22559;54.176;12.102;2023-02-05T10:40:09;3.27;;;1.87;;
36551;SDS011;22559;54.176;12.102;2023-02-05T10:42:50;1.93;;;1.83;;
36551;SDS011;22559;54.176;12.102;2023-02-05T10:45:27;3.40;;;1.70;;
36551;SDS011;22559;54.176;12.102;2023-02-05T10:53:09;1.70;;;1.60;;
36551;SDS011;22559;54.176;12.102;2023-02-05T10:55:35;1.80;;;1.70;;
36551;SDS011;22559;54.176;12.102;2023-02-05T10:58:01;1.80;;;1.70;;
36551;SDS011;22559;54.176;12.102;2023-02-05T11:00:48;1.60;;;1.50;;
36551;SDS011;22559;54.176;12.102;2023-02-05T11:03:17;1.50;;;1.40;;
36551;SDS011;22559;54.176;12.102;2023-02-05T11:05:46;1.50;;;1.40;;
36551;SDS011;22559;54.176;12.102;2023-02-05T11:08:32;1.40;;;1.40;;
36551;SDS011;22559;54.176;12.102;2023-02-05T11:11:03;2.40;;;2.20;;
36551;SDS011;22559;54.176;12.102;2023-02-05T11:13:30;1.40;;;1.40;;
36551;SDS011;22559;54.176;12.102;2023-02-05T11:15:58;1.50;;;1.40;;
36551;SDS011;22559;54.176;12.102;2023-02-05T11:18:54;1.70;;;1.60;;
36551;SDS011;22559;54.176;12.102;2023-02-05T11:21:21;2.00;;;1.80;;
36551;SDS011;22559;54.176;12.102;2023-02-05T11:23:53;1.43;;;1.40;;
36551;SDS011;22559;54.176;12.102;2023-02-05T11:26:21;1.70;;;1.60;;
36551;SDS011;22559;54.176;12.102;2023-02-05T11:28:49;2.03;;;1.63;;
36551;SDS011;22559;54.176;12.102;2023-02-05T11:31:28;3.87;;;1.67;;
36551;SDS011;22559;54.176;12.102;2023-02-05T11:34:18;1.73;;;1.60;;
36551;SDS011;22559;54.176;12.102;2023-02-05T11:36:54;1.50;;;1.50;;
36551;SDS011;22559;54.176;12.102;2023-02-05T11:39:31;1.53;;;1.47;;
36551;SDS011;22559;54.176;12.102;2023-02-05T11:44:51;1.50;;;1.40;;
36551;SDS011;22559;54.176;12.102;2023-02-05T11:47:30;1.60;;;1.50;;
36551;SDS011;22559;54.176;12.102;2023-02-05T11:50:01;3.03;;;1.80;;
36551;SDS011;22559;54.176;12.102;2023-02-05T11:52:29;1.50;;;1.40;;
36551;SDS011;22559;54.176;12.102;2023-02-05T11:55:00;1.70;;;1.60;;
36551;SDS011;22559;54.176;12.102;2023-02-05T12:00:19;1.60;;;1.50;;
36551;SDS011;22559;54.176;12.102;2023-02-05T12:02:46;1.57;;;1.57;;
36551;SDS011;22559;54.176;12.102;2023-02-05T12:05:18;1.70;;;1.60;;
36551;SDS011;22559;54.176;12.102;2023-02-05T12:13:21;1.67;;;1.57;;
36551;SDS011;22559;54.176;12.102;2023-02-05T12:16:04;2.20;;;1.60;;
36551;SDS011;22559;54.176;12.102;2023-02-05T12:21:24;1.30;;;1.30;;
36551;SDS011;22559;54.176;12.102;2023-02-05T12:26:38;1.63;;;1.57;;
36551;SDS011;22559;54.176;12.102;2023-02-05T12:40:38;2.80;;;1.77;;
36551;SDS011;22559;54.176;12.102;2023-02-05T12:43:37;1.90;;;1.80;;
36551;SDS011;22559;54.176;12.102;2023-02-05T12:54:17;1.30;;;1.30;;
36551;SDS011;22559;54.176;12.102;2023-02-05T12:57:15;1.67;;;1.57;;
36551;SDS011;22559;54.176;12.102;2023-02-05T13:00:19;2.10;;;1.40;;
36551;SDS011;22559;54.176;12.102;2023-02-05T13:02:50;1.63;;;1.53;;
36551;SDS011;22559;54.176;12.102;2023-02-05T13:13:21;2.10;;;1.87;;
36551;SDS011;22559;54.176;12.102;2023-02-05T13:16:01;1.73;;;1.70;;
36551;SDS011;22559;54.176;12.102;2023-02-05T13:18:39;1.70;;;1.60;;
36551;SDS011;22559;54.176;12.102;2023-02-05T13:21:14;1.97;;;1.60;;
36551;SDS011;22559;54.176;12.102;2023-02-05T13:27:13;1.80;;;1.70;;
36551;SDS011;22559;54.176;12.102;2023-02-05T13:30:13;1.70;;;1.60;;
36551;SDS011;22559;54.176;12.102;2023-02-05T13:32:44;1.90;;;1.80;;
36551;SDS011;22559;54.176;12.102;2023-02-05T13:35:14;1.90;;;1.80;;
36551;SDS011;22559;54.176;12.102;2023-02-05T13:43:08;1.80;;;1.70;;
36551;SDS011;22559;54.176;12.102;2023-02-05T13:51:28;1.60;;;1.50;;
36551;SDS011;22559;54.176;12.102;2023-02-05T13:57:29;1.90;;;1.80;;
36551;SDS011;22559;54.176;12.102;2023-02-05T14:00:20;2.83;;;1.70;;
36551;SDS011;22559;54.176;12.102;2023-02-05T14:02:46;1.90;;;1.80;;
36551;SDS011;22559;54.176;12.102;2023-02-05T14:05:13;2.23;;;1.97;;
36551;SDS011;22559;54.176;12.102;2023-02-05T14:07:47;1.90;;;1.80;;
36551;SDS011;22559;54.176;12.102;2023-02-05T14:12:51;1.73;;;1.63;;
36551;SDS011;22559;54.176;12.102;2023-02-05T14:20:51;1.80;;;1.70;;
36551;SDS011;22559;54.176;12.102;2023-02-05T14:23:19;1.93;;;1.83;;
36551;SDS011;22559;54.176;12.102;2023-02-05T14:26:12;2.17;;;2.07;;
36551;SDS011;22559;54.176;12.102;2023-02-05T14:28:45;1.97;;;1.87;;
36551;SDS011;22559;54.176;12.102;2023-02-05T14:36:58;2.20;;;2.00;;
36551;SDS011;22559;54.176;12.102;2023-02-05T14:39:28;2.03;;;1.93;;
36551;SDS011;22559;54.176;12.102;2023-02-05T14:41:57;2.67;;;1.83;;
36551;SDS011;22559;54.176;12.102;2023-02-05T14:44:30;2.10;;;2.00;;
36551;SDS011;22559;54.176;12.102;2023-02-05T14:49:47;2.00;;;1.87;;
36551;SDS011;22559;54.176;12.102;2023-02-05T14:55:19;2.00;;;1.90;;
36551;SDS011;22559;54.176;12.102;2023-02-05T14:57:50;2.20;;;2.10;;
36551;SDS011;22559;54.176;12.102;2023-02-05T15:02:47;2.53;;;2.33;;
36551;SDS011;22559;54.176;12.102;2023-02-05T15:05:29;3.60;;;2.40;;
36551;SDS011;22559;54.176;12.102;2023-02-05T15:10:36;2.67;;;2.47;;
36551;SDS011;22559;54.176;12.102;2023-02-05T15:13:25;2.70;;;2.50;;
36551;SDS011;22559;54.176;12.102;2023-02-05T15:21:24;2.27;;;2.10;;
36551;SDS011;22559;54.176;12.102;2023-02-05T15:23:52;2.10;;;2.00;;
36551;SDS011;22559;54.176;12.102;2023-02-05T15:26:34;2.63;;;2.37;;
36551;SDS011;22559;54.176;12.102;2023-02-05T15:29:05;3.63;;;2.30;;
36551;SDS011;22559;54.176;12.102;2023-02-05T15:34:44;2.33;;;2.20;;
36551;SDS011;22559;54.176;12.102;2023-02-05T15:37:48;2.27;;;2.10;;
36551;SDS011;22559;54.176;12.102;2023-02-05T15:40:24;2.30;;;2.20;;
36551;SDS011;22559;54.176;12.102;2023-02-05T15:42:51;2.10;;;1.90;;
36551;SDS011;22559;54.176;12.102;2023-02-05T15:45:28;2.00;;;1.90;;
36551;SDS011;22559;54.176;12.102;2023-02-05T15:48:01;2.13;;;2.03;;
36551;SDS011;22559;54.176;12.102;2023-02-05T15:50:30;2.03;;;1.93;;
36551;SDS011;22559;54.176;12.102;2023-02-05T15:52:58;2.17;;;2.07;;
36551;SDS011;22559;54.176;12.102;2023-02-05T15:55:24;2.50;;;2.30;;
36551;SDS011;22559;54.176;12.102;2023-02-05T15:57:57;2.37;;;2.17;;
36551;SDS011;22559;54.176;12.102;2023-02-05T16:00:30;2.30;;;2.10;;
36551;SDS011;22559;54.176;12.102;2023-02-05T16:02:58;2.43;;;2.23;;
36551;SDS011;22559;54.176;12.102;2023-02-05T16:05:26;2.10;;;1.93;;
36551;SDS011;22559;54.176;12.102;2023-02-05T16:07:53;2.43;;;2.20;;
36551;SDS011;22559;54.176;12.102;2023-02-05T16:10:32;3.67;;;2.43;;
36551;SDS011;22559;54.176;12.102;2023-02-05T16:15:41;2.10;;;2.00;;
36551;SDS011;22559;54.176;12.102;2023-02-05T16:18:12;2.93;;;2.37;;
36551;SDS011;22559;54.176;12.102;2023-02-05T16:20:45;2.87;;;2.57;;
36551;SDS011;22559;54.176;12.102;2023-02-05T16:23:21;2.17;;;2.07;;
36551;SDS011;22559;54.176;12.102;2023-02-05T16:25:58;3.73;;;1.97;;
36551;SDS011;22559;54.176;12.102;2023-02-05T16:28:34;5.37;;;2.93;;
36551;SDS011;22559;54.176;12.102;2023-02-05T16:31:01;4.07;;;2.90;;
36551;SDS011;22559;54.176;12.102;2023-02-05T16:33:32;3.73;;;2.30;;
36551;SDS011;22559;54.176;12.102;2023-02-05T16:36:05;3.93;;;3.07;;
36551;SDS011;22559;54.176;12.102;2023-02-05T16:38:39;3.57;;;2.60;;
36551;SDS011;22559;54.176;12.102;2023-02-05T16:41:16;2.70;;;2.50;;
36551;SDS011;22559;54.176;12.102;2023-02-05T16:43:52;2.97;;;2.40;;
36551;SDS011;22559;54.176;12.102;2023-02-05T16:46:20;2.47;;;2.27;;
36551;SDS011;22559;54.176;12.102;2023-02-05T16:54:00;2.20;;;2.10;;
36551;SDS011;22559;54.176;12.102;2023-02-05T16:56:31;1.83;;;1.73;;
36551;SDS011;22559;54.176;12.102;2023-02-05T16:59:00;2.10;;;2.00;;
36551;SDS011;22559;54.176;12.102;2023-02-05T17:01:28;2.60;;;2.40;;
36551;SDS011;22559;54.176;12.102;2023-02-05T17:04:03;2.70;;;2.30;;
36551;SDS011;22559;54.176;12.102;2023-02-05T17:06:36;2.50;;;2.40;;
36551;SDS011;22559;54.176;12.102;2023-02-05T17:09:03;2.40;;;2.20;;
36551;SDS011;22559;54.176;12.102;2023-02-05T17:11:31;2.33;;;2.13;;
36551;SDS011;22559;54.176;12.102;2023-02-05T17:17:01;3.57;;;3.27;;
36551;SDS011;22559;54.176;12.102;2023-02-05T17:19:38;3.30;;;2.20;;
36551;SDS011;22559;54.176;12.102;2023-02-05T17:24:42;5.10;;;2.40;;
36551;SDS011;22559;54.176;12.102;2023-02-05T17:29:43;2.60;;;2.40;;
36551;SDS011;22559;54.176;12.102;2023-02-05T17:32:16;3.27;;;2.60;;
36551;SDS011;22559;54.176;12.102;2023-02-05T17:34:43;2.57;;;2.30;;
36551;SDS011;22559;54.176;12.102;2023-02-05T17:37:10;2.43;;;2.33;;
36551;SDS011;22559;54.176;12.102;2023-02-05T17:39:35;2.97;;;2.50;;
36551;SDS011;22559;54.176;12.102;2023-02-05T17:42:01;2.70;;;2.50;;